Time;durP1;ratioP1;P1;durP2;ratioP2;P2;SDS_P1;SDS_P2;PMS_P1;PMS_P2;Temp;Humidity;BMP_temperature;BMP_pressure;BME280_temperature;BME280_humidity;BME280_pressure;Samples;Min_cycle;Max_cycle;Signal;HPM_P1;HPM_P2
2022/10/03 00:00:14;;;;;;;;;;;8.30;99.90;;;;;;5072629;28;19985;-84
2022/10/03 00:02:56;;;;;;;;;;;8.30;99.90;;;;;;5087238;28;19947;-83
2022/10/03 00:05:31;;;;;;;;;;;8.20;99.90;;;;;;5072778;28;19916;-83
2022/10/03 00:08:04;;;;;;;;;;;8.30;99.90;;;;;;5089196;28;19924;-83
2022/10/03 00:10:38;;;;;;;;;;;8.20;99.90;;;;;;5090318;28;19939;-84
2022/10/03 00:13:16;;;;;;;;;;;8.20;99.90;;;;;;5090065;28;19963;-84
2022/10/03 00:15:48;;;;;;;;;;;8.20;99.90;;;;;;5090505;28;20247;-84
2022/10/03 00:18:20;;;;;;;;;;;8.20;99.90;;;;;;5090118;28;19928;-84
2022/10/03 00:21:02;;;;;;;;;;;8.20;99.90;;;;;;5091565;28;19928;-84
2022/10/03 00:23:36;;;;;;;;;;;8.10;99.90;;;;;;5092864;28;19928;-85
2022/10/03 00:28:53;;;;;;;;;;;8.20;99.90;;;;;;5101390;28;19971;-83
2022/10/03 00:31:24;;;;;;;;;;;8.10;99.90;;;;;;5094927;28;19928;-85
2022/10/03 00:34:00;;;;;;;;;;;8.10;99.90;;;;;;5077493;28;19928;-84
2022/10/03 00:36:31;;;;;;;;;;;8.20;99.90;;;;;;5072652;28;19924;-84
2022/10/03 00:39:03;;;;;;;;;;;8.10;99.90;;;;;;5071619;28;19960;-84
2022/10/03 00:41:47;;;;;;;;;;;10.90;99.90;;;;;;5069860;28;20011;-84
2022/10/03 00:44:33;;;;;;;;;;;8.00;99.90;;;;;;5071387;28;19947;-84
2022/10/03 00:47:08;;;;;;;;;;;8.00;99.90;;;;;;5073277;28;19928;-82
2022/10/03 00:49:51;;;;;;;;;;;7.90;99.90;;;;;;5070365;28;19935;-82
2022/10/03 00:52:32;;;;;;;;;;;7.90;99.90;;;;;;5072186;28;19943;-83
2022/10/03 00:55:05;;;;;;;;;;;7.90;99.90;;;;;;5069689;28;19953;-84
2022/10/03 00:57:47;;;;;;;;;;;7.90;99.90;;;;;;5072655;28;19981;-83
2022/10/03 01:00:17;;;;;;;;;;;7.90;99.90;;;;;;5070470;28;19932;-82
2022/10/03 01:02:53;;;;;;;;;;;7.90;99.90;;;;;;5075121;28;19929;-83
2022/10/03 01:05:26;;;;;;;;;;;7.90;99.90;;;;;;5075962;28;19932;-84
2022/10/03 01:07:57;;;;;;;;;;;7.80;99.90;;;;;;5073849;28;19924;-83
2022/10/03 01:10:31;;;;;;;;;;;7.80;99.90;;;;;;5075066;28;19924;-84
2022/10/03 01:13:05;;;;;;;;;;;7.80;99.90;;;;;;5071719;28;20310;-82
2022/10/03 01:15:37;;;;;;;;;;;7.80;99.90;;;;;;5070702;28;20032;-82
2022/10/03 01:18:10;;;;;;;;;;;7.70;99.90;;;;;;5070537;28;19928;-82
2022/10/03 01:20:44;;;;;;;;;;;7.70;99.90;;;;;;5072353;28;19935;-83
2022/10/03 01:23:29;;;;;;;;;;;7.70;99.90;;;;;;5077777;28;19928;-84
2022/10/03 01:26:05;;;;;;;;;;;7.60;99.90;;;;;;5073129;28;19936;-83
2022/10/03 01:31:28;;;;;;;;;;;7.60;99.90;;;;;;5069523;28;19939;-82
2022/10/03 01:33:59;;;;;;;;;;;7.60;99.90;;;;;;5070654;28;20382;-83
2022/10/03 01:36:31;;;;;;;;;;;7.60;99.90;;;;;;5079605;28;19932;-85
2022/10/03 01:39:00;;;;;;;;;;;7.60;99.90;;;;;;5071672;28;19929;-84
2022/10/03 01:41:31;;;;;;;;;;;7.60;99.90;;;;;;5075364;28;19929;-83
2022/10/03 01:44:01;;;;;;;;;;;7.60;99.90;;;;;;5077210;28;19924;-85
2022/10/03 01:46:36;;;;;;;;;;;7.60;99.90;;;;;;5088864;28;19928;-86
2022/10/03 01:49:08;;;;;;;;;;;7.60;99.90;;;;;;5079229;28;19975;-82
2022/10/03 01:51:43;;;;;;;;;;;7.60;99.90;;;;;;5050852;28;19925;-82
2022/10/03 01:54:16;;;;;;;;;;;7.70;99.90;;;;;;5055147;28;20086;-82
2022/10/03 01:56:46;;;;;;;;;;;7.70;99.90;;;;;;5061547;28;20406;-82
2022/10/03 01:59:17;;;;;;;;;;;7.70;99.90;;;;;;5062347;28;20386;-83
2022/10/03 02:01:48;;;;;;;;;;;7.60;99.90;;;;;;5063708;28;20426;-85
2022/10/03 02:04:17;;;;;;;;;;;7.60;99.90;;;;;;5049872;28;19924;-82
2022/10/03 02:06:49;;;;;;;;;;;7.60;99.90;;;;;;5065618;28;19943;-86
2022/10/03 02:09:20;;;;;;;;;;;7.60;99.90;;;;;;5068796;28;19925;-82
2022/10/03 02:11:57;;;;;;;;;;;7.60;99.90;;;;;;5068610;28;20016;-82
2022/10/03 02:14:29;;;;;;;;;;;7.60;99.90;;;;;;5068637;28;19932;-83
2022/10/03 02:17:00;;;;;;;;;;;7.60;99.90;;;;;;5069064;28;19932;-84
2022/10/03 02:19:29;;;;;;;;;;;7.60;99.90;;;;;;5069475;28;20450;-85
2022/10/03 02:21:57;;;;;;;;;;;7.60;99.90;;;;;;5068173;28;19947;-84
2022/10/03 02:24:29;;;;;;;;;;;7.60;99.90;;;;;;5068147;28;19993;-84
2022/10/03 02:27:07;;;;;;;;;;;7.60;99.90;;;;;;5067536;28;20390;-82
2022/10/03 02:29:56;;;;;;;;;;;7.60;99.90;;;;;;5070946;28;19928;-82
2022/10/03 02:32:38;;;;;;;;;;;8.00;99.90;;;;;;5068674;28;19932;-84
2022/10/03 02:35:21;;;;;;;;;;;7.40;99.90;;;;;;5082331;28;19960;-83
2022/10/03 02:38:06;;;;;;;;;;;7.50;99.90;;;;;;5076447;28;20021;-84
2022/10/03 02:40:44;;;;;;;;;;;7.40;99.90;;;;;;5073624;28;19932;-83
2022/10/03 02:43:26;;;;;;;;;;;7.40;99.90;;;;;;5089437;28;20043;-84
2022/10/03 02:46:02;;;;;;;;;;;7.30;99.90;;;;;;5082540;28;19974;-85
2022/10/03 02:48:46;;;;;;;;;;;7.30;99.90;;;;;;5090871;28;19925;-83
2022/10/03 02:51:36;;;;;;;;;;;7.30;99.90;;;;;;5078836;28;20386;-86
2022/10/03 02:54:15;;;;;;;;;;;7.30;99.90;;;;;;5084032;28;19928;-81
2022/10/03 02:57:02;;;;;;;;;;;7.30;99.90;;;;;;5073266;28;19932;-82
2022/10/03 02:59:53;;;;;;;;;;;7.30;99.90;;;;;;5073681;28;20401;-84
2022/10/03 03:02:37;;;;;;;;;;;7.30;99.90;;;;;;5073248;28;19974;-84
2022/10/03 03:05:25;;;;;;;;;;;7.30;99.90;;;;;;5070521;28;19935;-83
2022/10/03 03:08:19;;;;;;;;;;;7.30;99.90;;;;;;5076128;28;20023;-82
2022/10/03 03:11:06;;;;;;;;;;;7.30;99.90;;;;;;5027613;28;19929;-83
2022/10/03 03:14:04;;;;;;;;;;;7.30;99.90;;;;;;5080249;28;19932;-83
2022/10/03 03:16:42;;;;;;;;;;;7.30;99.90;;;;;;5073261;28;19976;-84
2022/10/03 03:19:16;;;;;;;;;;;7.30;99.90;;;;;;5078770;28;19928;-84
2022/10/03 03:21:49;;;;;;;;;;;7.20;99.90;;;;;;5092367;28;19928;-84
2022/10/03 03:24:30;;;;;;;;;;;7.30;99.90;;;;;;5091932;28;20465;-84
2022/10/03 03:27:03;;;;;;;;;;;7.30;99.90;;;;;;5074253;28;19935;-85
2022/10/03 03:29:37;;;;;;;;;;;7.30;99.90;;;;;;5072286;28;19950;-87
2022/10/03 03:32:08;;;;;;;;;;;7.30;99.90;;;;;;5071768;28;20642;-86
2022/10/03 03:34:41;;;;;;;;;;;7.30;99.90;;;;;;5053162;28;19929;-83
2022/10/03 03:37:10;;;;;;;;;;;7.30;99.90;;;;;;5057560;28;19925;-83
2022/10/03 03:39:55;;;;;;;;;;;7.30;99.90;;;;;;5067830;28;19928;-83
2022/10/03 03:42:32;;;;;;;;;;;7.30;99.90;;;;;;5056956;28;19978;-86
2022/10/03 03:45:08;;;;;;;;;;;7.20;99.90;;;;;;5072351;28;20020;-83
2022/10/03 03:47:55;;;;;;;;;;;7.20;99.90;;;;;;5073562;28;19950;-83
2022/10/03 03:50:33;;;;;;;;;;;7.20;99.90;;;;;;5069020;28;19928;-84
2022/10/03 03:53:10;;;;;;;;;;;7.20;99.90;;;;;;5074896;28;19932;-83
2022/10/03 03:55:47;;;;;;;;;;;7.20;99.90;;;;;;5088446;28;20390;-83
2022/10/03 03:58:22;;;;;;;;;;;7.30;99.90;;;;;;5097209;28;20573;-83
2022/10/03 04:00:58;;;;;;;;;;;7.40;99.90;;;;;;5071452;28;19924;-86
2022/10/03 04:03:30;;;;;;;;;;;7.50;99.90;;;;;;5088031;28;20023;-83
2022/10/03 04:06:05;;;;;;;;;;;7.70;99.90;;;;;;5091155;28;20413;-83
2022/10/03 04:08:39;;;;;;;;;;;7.80;99.90;;;;;;5074713;28;19985;-82
2022/10/03 04:11:11;;;;;;;;;;;7.80;99.90;;;;;;5071621;28;19982;-83
2022/10/03 04:14:02;;;;;;;;;;;7.90;99.90;;;;;;5071186;28;19925;-83
2022/10/03 04:19:28;;;;;;;;;;;8.10;99.90;;;;;;5071818;28;20774;-83
2022/10/03 04:22:05;;;;;;;;;;;8.20;99.90;;;;;;5071056;28;19929;-84
2022/10/03 04:24:39;;;;;;;;;;;8.30;99.90;;;;;;5071656;28;20291;-84
2022/10/03 04:27:18;;;;;;;;;;;8.40;99.90;;;;;;5087099;28;20404;-85
2022/10/03 04:29:46;;;;;;;;;;;8.50;99.90;;;;;;5091378;28;19928;-85
2022/10/03 04:32:34;;;;;;;;;;;8.50;99.90;;;;;;5073265;28;20029;-87
2022/10/03 04:35:10;;;;;;;;;;;8.70;99.90;;;;;;5071459;28;20006;-83
2022/10/03 04:37:42;;;;;;;;;;;8.60;99.90;;;;;;5075211;28;19928;-83
2022/10/03 04:40:17;;;;;;;;;;;8.60;99.90;;;;;;5076643;28;19935;-83
2022/10/03 04:42:50;;;;;;;;;;;8.70;99.90;;;;;;5071710;28;19978;-83
2022/10/03 04:45:30;;;;;;;;;;;8.70;99.90;;;;;;5070795;28;21399;-83
2022/10/03 04:48:05;;;;;;;;;;;8.70;99.90;;;;;;5069398;28;19951;-82
2022/10/03 04:50:35;;;;;;;;;;;8.70;99.90;;;;;;5071056;28;19943;-83
2022/10/03 04:53:10;;;;;;;;;;;8.60;99.90;;;;;;5071052;28;19924;-82
2022/10/03 04:55:39;;;;;;;;;;;8.60;99.90;;;;;;5069476;28;19928;-84
2022/10/03 04:58:15;;;;;;;;;;;8.70;99.90;;;;;;5085241;28;20382;-84
2022/10/03 05:00:48;;;;;;;;;;;8.60;99.90;;;;;;5082304;28;20438;-84
2022/10/03 05:03:21;;;;;;;;;;;8.50;99.90;;;;;;5067551;28;20034;-84
2022/10/03 05:05:54;;;;;;;;;;;8.50;99.90;;;;;;5068243;28;20310;-84
2022/10/03 05:08:31;;;;;;;;;;;8.50;99.90;;;;;;5068603;28;20569;-85
2022/10/03 05:11:06;;;;;;;;;;;8.50;99.90;;;;;;5069331;28;19932;-85
2022/10/03 05:13:46;;;;;;;;;;;8.50;99.90;;;;;;5068547;28;20009;-84
2022/10/03 05:16:21;;;;;;;;;;;8.50;99.90;;;;;;5080100;28;19932;-85
2022/10/03 05:18:52;;;;;;;;;;;8.50;99.90;;;;;;5068038;28;20023;-85
2022/10/03 05:21:24;;;;;;;;;;;8.50;99.90;;;;;;5059826;28;20413;-85
2022/10/03 05:24:01;;;;;;;;;;;8.60;99.90;;;;;;5050698;28;19935;-85
2022/10/03 05:26:38;;;;;;;;;;;8.60;99.90;;;;;;5078417;28;19922;-84
2022/10/03 05:29:11;;;;;;;;;;;8.70;99.90;;;;;;5086740;28;20382;-85
2022/10/03 05:31:45;;;;;;;;;;;8.70;99.90;;;;;;5068399;28;20079;-85
2022/10/03 05:34:20;;;;;;;;;;;8.80;99.90;;;;;;5067257;28;20745;-85
2022/10/03 05:36:58;;;;;;;;;;;8.80;99.90;;;;;;5049766;28;20066;-84
2022/10/03 05:39:26;;;;;;;;;;;8.90;99.90;;;;;;5066288;28;19947;-84
2022/10/03 05:41:54;;;;;;;;;;;8.90;99.90;;;;;;5066584;28;19932;-84
2022/10/03 05:44:26;;;;;;;;;;;9.00;99.90;;;;;;5062825;28;20000;-84
2022/10/03 05:46:58;;;;;;;;;;;9.20;99.90;;;;;;5063796;28;19929;-83
2022/10/03 05:49:35;;;;;;;;;;;9.90;99.90;;;;;;5047577;28;19936;-84
2022/10/03 05:52:17;;;;;;;;;;;9.30;99.90;;;;;;5049410;28;20050;-84
2022/10/03 05:55:03;;;;;;;;;;;9.40;99.90;;;;;;5045854;28;19998;-86
2022/10/03 05:57:41;;;;;;;;;;;9.50;99.90;;;;;;5046423;28;19935;-85
2022/10/03 06:00:26;;;;;;;;;;;9.60;99.90;;;;;;5064672;28;20318;-85
2022/10/03 06:02:56;;;;;;;;;;;9.70;99.90;;;;;;5064737;28;19928;-84
2022/10/03 06:05:31;;;;;;;;;;;9.80;99.90;;;;;;5076387;28;19958;-84
2022/10/03 06:08:09;;;;;;;;;;;9.90;99.90;;;;;;5069170;28;20329;-84
2022/10/03 06:10:42;;;;;;;;;;;9.90;99.90;;;;;;5076538;28;19924;-85
2022/10/03 06:13:11;;;;;;;;;;;10.00;99.90;;;;;;5074033;28;19928;-85
2022/10/03 06:15:54;;;;;;;;;;;10.10;99.90;;;;;;5073022;28;19928;-85
2022/10/03 06:18:30;;;;;;;;;;;10.10;99.90;;;;;;5069489;28;19936;-85
2022/10/03 06:21:15;;;;;;;;;;;10.20;99.90;;;;;;5075344;28;19988;-84
2022/10/03 06:23:57;;;;;;;;;;;10.30;99.90;;;;;;5071032;28;19942;-85
2022/10/03 06:26:36;;;;;;;;;;;10.40;99.90;;;;;;5071069;28;19928;-86
2022/10/03 06:29:28;;;;;;;;;;;10.40;99.90;;;;;;5081020;28;20027;-85
2022/10/03 06:32:05;;;;;;;;;;;10.40;99.90;;;;;;5070125;28;19932;-86
2022/10/03 06:34:50;;;;;;;;;;;10.70;99.90;;;;;;5077383;28;19932;-85
2022/10/03 06:37:44;;;;;;;;;;;10.60;99.90;;;;;;5065815;28;20023;-85
2022/10/03 06:40:31;;;;;;;;;;;10.60;99.90;;;;;;5058161;28;19932;-85
2022/10/03 06:43:11;;;;;;;;;;;10.80;99.90;;;;;;5061343;28;19964;-87
2022/10/03 06:46:05;;;;;;;;;;;10.80;99.90;;;;;;5073474;28;19982;-86
2022/10/03 06:48:40;;;;;;;;;;;10.80;99.90;;;;;;5037988;28;19947;-84
2022/10/03 06:51:28;;;;;;;;;;;11.00;99.90;;;;;;5070396;28;20305;-85
2022/10/03 06:54:10;;;;;;;;;;;11.10;99.90;;;;;;5081520;28;19924;-86
2022/10/03 06:56:56;;;;;;;;;;;11.40;99.90;;;;;;5076489;28;19925;-86
2022/10/03 06:59:41;;;;;;;;;;;11.60;99.90;;;;;;5070226;28;19939;-85
2022/10/03 07:02:23;;;;;;;;;;;11.80;99.90;;;;;;5057962;28;20310;-86
2022/10/03 07:05:08;;;;;;;;;;;12.00;99.90;;;;;;5067436;28;19928;-86
2022/10/03 07:07:53;;;;;;;;;;;12.20;99.90;;;;;;5028345;28;21132;-86
2022/10/03 07:10:27;;;;;;;;;;;12.30;99.90;;;;;;5065810;28;19924;-86
2022/10/03 07:13:12;;;;;;;;;;;12.30;99.90;;;;;;5070862;28;19955;-86
2022/10/03 07:16:01;;;;;;;;;;;12.40;99.90;;;;;;5070940;28;19975;-85
2022/10/03 07:18:37;;;;;;;;;;;12.60;99.90;;;;;;5081105;28;19959;-84
2022/10/03 07:21:21;;;;;;;;;;;12.70;99.90;;;;;;5073058;28;19940;-84
2022/10/03 07:24:01;;;;;;;;;;;13.20;99.90;;;;;;5072194;28;20006;-84
2022/10/03 07:26:52;;;;;;;;;;;13.20;99.90;;;;;;5074222;28;20002;-85
2022/10/03 07:29:36;;;;;;;;;;;13.60;99.90;;;;;;5035023;28;20532;-85
2022/10/03 07:32:13;;;;;;;;;;;14.60;99.90;;;;;;5060252;28;20026;-84
2022/10/03 07:34:58;;;;;;;;;;;13.90;99.90;;;;;;5059301;28;20504;-84
2022/10/03 07:40:27;;;;;;;;;;;14.00;99.90;;;;;;5085966;28;19985;-83
2022/10/03 07:43:20;;;;;;;;;;;14.00;99.90;;;;;;5075741;28;19933;-85
2022/10/03 07:46:15;;;;;;;;;;;;;;;;;;;;;
2022/10/03 07:49:08;;;;;;;;;;;14.20;99.90;;;;;;5066670;28;20013;-86
2022/10/03 07:51:40;;;;;;;;;;;14.30;99.90;;;;;;5060378;28;19929;-86
2022/10/03 07:54:28;;;;;;;;;;;14.20;99.90;;;;;;5077580;28;19929;-84
2022/10/03 07:57:02;;;;;;;;;;;14.10;99.90;;;;;;5069423;28;19932;-87
2022/10/03 07:59:44;;;;;;;;;;;14.00;99.90;;;;;;5072705;28;19932;-85
2022/10/03 08:02:25;;;;;;;;;;;13.90;99.90;;;;;;5076326;28;19947;-84
2022/10/03 08:05:02;;;;;;;;;;;13.80;99.90;;;;;;5089230;28;20792;-86
2022/10/03 08:07:38;;;;;;;;;;;14.00;99.90;;;;;;5090022;28;19931;-87
2022/10/03 08:10:20;;;;;;;;;;;14.50;99.90;;;;;;5082945;28;19924;-85
2022/10/03 08:13:03;;;;;;;;;;;15.10;99.90;;;;;;5077561;28;19978;-87
2022/10/03 08:15:35;;;;;;;;;;;15.80;99.90;;;;;;5073167;28;20047;-85
2022/10/03 08:18:22;;;;;;;;;;;16.40;99.90;;;;;;5074352;28;19925;-85
2022/10/03 08:20:55;;;;;;;;;;;17.00;99.90;;;;;;5074786;28;19959;-89
2022/10/03 08:23:43;;;;;;;;;;;17.50;99.90;;;;;;5069069;28;19931;-86
2022/10/03 08:26:16;;;;;;;;;;;17.90;99.90;;;;;;5073631;28;19935;-86
2022/10/03 08:28:59;;;;;;;;;;;18.10;99.90;;;;;;5061182;28;19933;-86
2022/10/03 08:31:45;;;;;;;;;;;18.20;99.90;;;;;;5060986;28;20652;-85
2022/10/03 08:34:26;;;;;;;;;;;18.40;99.90;;;;;;5059037;28;19929;-86
2022/10/03 08:37:17;;;;;;;;;;;18.50;99.90;;;;;;5051601;28;19928;-89
2022/10/03 08:39:55;;;;;;;;;;;18.60;99.90;;;;;;5054313;28;20401;-88
2022/10/03 08:42:41;;;;;;;;;;;18.80;99.90;;;;;;5071113;28;19925;-85
2022/10/03 08:45:40;;;;;;;;;;;18.90;99.90;;;;;;5064205;28;19924;-85
2022/10/03 08:48:29;;;;;;;;;;;18.90;99.90;;;;;;5002658;28;19996;-87
2022/10/03 08:51:25;;;;;;;;;;;18.90;99.90;;;;;;5060809;28;19932;-86
2022/10/03 08:54:06;;;;;;;;;;;18.80;99.90;;;;;;5049799;28;20394;-86
2022/10/03 08:56:49;;;;;;;;;;;18.90;99.90;;;;;;5067773;28;19932;-86
2022/10/03 08:59:32;;;;;;;;;;;18.90;99.90;;;;;;5066529;28;19924;-86
2022/10/03 09:02:27;;;;;;;;;;;18.80;99.90;;;;;;5061950;28;20073;-85
2022/10/03 09:05:12;;;;;;;;;;;18.80;99.90;;;;;;5065592;28;20453;-85
2022/10/03 09:07:50;;;;;;;;;;;18.60;99.90;;;;;;5067827;28;19925;-85
2022/10/03 09:10:35;;;;;;;;;;;18.30;99.90;;;;;;5083377;28;20392;-84
2022/10/03 09:13:14;;;;;;;;;;;17.90;99.90;;;;;;5069879;28;19928;-85
2022/10/03 09:16:08;;;;;;;;;;;17.90;99.90;;;;;;5067905;28;19983;-85
2022/10/03 09:18:50;;;;;;;;;;;17.80;99.90;;;;;;5043580;28;20659;-84
2022/10/03 09:21:44;;;;;;;;;;;17.80;99.90;;;;;;5066419;28;20015;-87
2022/10/03 09:24:22;;;;;;;;;;;17.60;99.90;;;;;;5066223;28;20024;-84
2022/10/03 09:27:13;;;;;;;;;;;17.40;99.90;;;;;;5070586;28;19962;-86
2022/10/03 09:30:04;;;;;;;;;;;17.40;99.90;;;;;;5050770;28;20023;-85
2022/10/03 09:32:58;;;;;;;;;;;17.50;99.90;;;;;;5066380;28;20029;-85
2022/10/03 09:35:39;;;;;;;;;;;17.60;99.90;;;;;;5057133;28;19933;-85
2022/10/03 09:38:20;;;;;;;;;;;17.60;99.90;;;;;;5080177;28;20519;-87
2022/10/03 09:41:02;;;;;;;;;;;17.70;99.90;;;;;;5034664;28;19936;-86
2022/10/03 09:43:47;;;;;;;;;;;17.80;99.90;;;;;;5063471;28;20559;-86
2022/10/03 09:46:30;;;;;;;;;;;17.80;99.90;;;;;;5061367;28;20591;-85
2022/10/03 09:49:22;;;;;;;;;;;17.90;99.90;;;;;;5063388;28;19935;-87
2022/10/03 09:52:09;;;;;;;;;;;18.00;99.90;;;;;;5085588;28;20454;-85
2022/10/03 09:54:54;;;;;;;;;;;18.00;99.90;;;;;;5057475;28;20518;-87
2022/10/03 09:57:46;;;;;;;;;;;18.30;99.90;;;;;;5067903;28;20466;-88
2022/10/03 10:00:51;;;;;;;;;;;18.30;99.90;;;;;;5060756;28;19925;-86
2022/10/03 10:03:34;;;;;;;;;;;18.60;99.90;;;;;;5059015;28;19925;-88
2022/10/03 10:06:11;;;;;;;;;;;18.60;99.90;;;;;;5073546;28;19936;-88
2022/10/03 10:08:53;;;;;;;;;;;18.80;99.90;;;;;;5075581;28;19967;-86
2022/10/03 10:11:34;;;;;;;;;;;19.00;99.90;;;;;;5057264;28;20434;-86
2022/10/03 10:14:24;;;;;;;;;;;19.10;99.90;;;;;;5057903;28;19978;-85
2022/10/03 10:17:09;;;;;;;;;;;19.30;99.90;;;;;;5055470;28;19932;-85
2022/10/03 10:19:54;;;;;;;;;;;19.50;99.90;;;;;;5071833;28;19928;-85
2022/10/03 10:22:29;;;;;;;;;;;19.70;99.90;;;;;;5051659;28;19925;-87
2022/10/03 10:25:06;;;;;;;;;;;19.90;99.90;;;;;;5057023;28;19925;-86
2022/10/03 10:27:48;;;;;;;;;;;20.00;99.90;;;;;;5056831;28;19932;-86
2022/10/03 10:30:22;;;;;;;;;;;20.00;99.90;;;;;;5063933;28;19942;-87
2022/10/03 10:33:10;;;;;;;;;;;19.80;99.90;;;;;;5055725;28;20546;-86
2022/10/03 10:35:58;;;;;;;;;;;19.80;99.90;;;;;;5048581;28;19936;-86
2022/10/03 10:38:36;;;;;;;;;;;19.90;99.90;;;;;;5059856;28;20627;-86
2022/10/03 10:41:33;;;;;;;;;;;20.00;99.90;;;;;;5060780;28;20015;-86
2022/10/03 10:44:17;;;;;;;;;;;20.20;99.90;;;;;;5058140;28;19929;-87
2022/10/03 10:47:00;;;;;;;;;;;20.50;99.90;;;;;;5074579;28;19933;-87
2022/10/03 10:49:40;;;;;;;;;;;20.70;99.90;;;;;;5073777;28;19928;-86
2022/10/03 10:52:18;;;;;;;;;;;20.70;99.90;;;;;;5083263;28;19928;-86
2022/10/03 10:55:02;;;;;;;;;;;20.60;99.90;;;;;;5090415;28;19932;-86
2022/10/03 10:57:47;;;;;;;;;;;20.60;99.90;;;;;;5071585;28;19932;-85
2022/10/03 11:00:21;;;;;;;;;;;20.70;99.90;;;;;;5069096;28;19933;-85
2022/10/03 11:03:06;;;;;;;;;;;20.70;99.90;;;;;;5053652;28;20658;-85
2022/10/03 11:05:45;;;;;;;;;;;20.80;99.90;;;;;;5052257;28;19979;-86
2022/10/03 11:08:36;;;;;;;;;;;20.80;99.90;;;;;;5066084;28;19939;-86
2022/10/03 11:11:09;;;;;;;;;;;20.80;99.90;;;;;;5066431;28;19932;-86
2022/10/03 11:13:59;;;;;;;;;;;21.00;99.90;;;;;;5072291;28;19935;-86
2022/10/03 11:16:52;;;;;;;;;;;21.00;99.90;;;;;;5072032;28;19928;-85
2022/10/03 11:19:47;;;;;;;;;;;21.20;99.90;;;;;;5063430;28;19929;-85
2022/10/03 11:22:54;;;;;;;;;;;21.30;99.90;;;;;;5058651;28;19936;-86
2022/10/03 11:25:40;;;;;;;;;;;21.20;99.90;;;;;;5073909;28;20649;-84
2022/10/03 11:28:28;;;;;;;;;;;21.10;99.90;;;;;;5050392;28;20109;-86
2022/10/03 11:31:08;;;;;;;;;;;21.20;99.90;;;;;;5057415;28;19990;-86
2022/10/03 11:33:35;;;;;;;;;;;;;;;;;;5056332;28;19940;-86
2022/10/03 11:36:20;;;;;;;;;;;21.20;99.90;;;;;;5060898;28;19935;-86
2022/10/03 11:38:54;;;;;;;;;;;21.40;99.90;;;;;;5059641;28;20317;-85
2022/10/03 11:41:24;;;;;;;;;;;21.40;99.90;;;;;;5056445;28;19932;-86
2022/10/03 11:44:12;;;;;;;;;;;21.50;99.90;;;;;;5058610;28;19935;-86
2022/10/03 11:46:57;;;;;;;;;;;21.50;99.90;;;;;;5051757;28;19958;-86
2022/10/03 11:49:36;;;;;;;;;;;21.60;99.90;;;;;;5058457;28;19986;-86
2022/10/03 11:52:07;;;;;;;;;;;21.80;99.90;;;;;;5066643;28;19970;-86
2022/10/03 11:54:47;;;;;;;;;;;21.80;99.90;;;;;;5079841;28;19933;-86
2022/10/03 11:57:18;;;;;;;;;;;21.60;99.90;;;;;;5051445;28;19937;-86
2022/10/03 11:59:54;;;;;;;;;;;21.90;99.90;;;;;;5051958;28;19929;-86
2022/10/03 12:02:40;;;;;;;;;;;21.90;99.90;;;;;;5066278;28;19924;-86
2022/10/03 12:05:15;;;;;;;;;;;22.10;99.90;;;;;;5059801;28;20011;-85
2022/10/03 12:10:46;;;;;;;;;;;22.40;99.90;;;;;;5064649;28;20010;-87
2022/10/03 12:13:15;;;;;;;;;;;22.80;99.90;;;;;;5069073;28;19925;-86
2022/10/03 12:15:46;;;;;;;;;;;23.10;99.90;;;;;;5073175;28;19928;-87
2022/10/03 12:18:17;;;;;;;;;;;23.30;99.90;;;;;;5065186;28;20006;-87
2022/10/03 12:21:00;;;;;;;;;;;23.20;99.90;;;;;;5084701;28;19925;-86
2022/10/03 12:23:34;;;;;;;;;;;23.20;99.90;;;;;;5063976;28;19978;-86
2022/10/03 12:26:04;;;;;;;;;;;24.40;99.90;;;;;;5080145;28;20069;-88
2022/10/03 12:28:35;;;;;;;;;;;23.00;99.90;;;;;;5084636;28;19929;-87
2022/10/03 12:31:06;;;;;;;;;;;23.20;99.90;;;;;;5052494;28;20264;-87
2022/10/03 12:33:46;;;;;;;;;;;23.10;99.90;;;;;;5054850;28;19928;-86
2022/10/03 12:36:22;;;;;;;;;;;23.10;99.90;;;;;;5053870;28;19985;-87
2022/10/03 12:38:55;;;;;;;;;;;23.20;99.90;;;;;;5071938;28;19933;-87
2022/10/03 12:41:41;;;;;;;;;;;24.40;99.90;;;;;;5072967;28;20701;-86
2022/10/03 12:44:19;;;;;;;;;;;23.50;99.90;;;;;;5055480;28;19936;-87
2022/10/03 12:47:01;;;;;;;;;;;23.90;99.90;;;;;;5057937;28;19955;-86
2022/10/03 12:49:44;;;;;;;;;;;24.50;99.90;;;;;;5073448;28;19924;-87
2022/10/03 12:52:28;;;;;;;;;;;24.50;99.90;;;;;;5063065;28;19936;-87
2022/10/03 12:55:11;;;;;;;;;;;24.90;99.90;;;;;;5020051;28;19913;-88
2022/10/03 12:58:04;;;;;;;;;;;24.90;99.90;;;;;;5058406;28;19932;-87
2022/10/03 13:00:42;;;;;;;;;;;25.20;99.90;;;;;;5021302;28;20372;-88
2022/10/03 13:03:20;;;;;;;;;;;24.50;99.90;;;;;;5050918;28;20321;-86
2022/10/03 13:09:27;;;;;;;;;;;23.70;99.90;;;;;;5063608;28;20166;-85
2022/10/03 13:12:09;;;;;;;;;;;23.10;99.90;;;;;;5059125;28;19964;-88
2022/10/03 13:15:08;;;;;;;;;;;23.00;99.90;;;;;;5060205;28;19932;-86
2022/10/03 13:17:49;;;;;;;;;;;22.40;99.90;;;;;;5075823;28;19956;-87
2022/10/03 13:20:24;;;;;;;;;;;22.40;99.90;;;;;;5076204;28;20448;-86
2022/10/03 13:22:55;;;;;;;;;;;22.40;99.90;;;;;;5058465;28;19951;-85
2022/10/03 13:25:36;;;;;;;;;;;22.50;99.90;;;;;;5083231;28;19932;-86
2022/10/03 13:28:11;;;;;;;;;;;22.60;99.90;;;;;;5083940;28;19932;-86
2022/10/03 13:30:52;;;;;;;;;;;22.70;99.90;;;;;;5079734;28;19921;-86
2022/10/03 13:36:57;;;;;;;;;;;23.10;99.90;;;;;;5050710;28;20023;-86
2022/10/03 13:39:29;;;;;;;;;;;23.30;99.90;;;;;;5086857;28;19924;-90
2022/10/03 13:41:59;;;;;;;;;;;23.60;99.90;;;;;;5087912;28;19932;-90
2022/10/03 13:44:34;;;;;;;;;;;23.70;99.90;;;;;;5087489;28;19912;-87
2022/10/03 13:47:05;;;;;;;;;;;24.00;99.90;;;;;;5049291;28;19951;-89
2022/10/03 13:49:35;;;;;;;;;;;24.30;99.90;;;;;;5059755;28;19929;-87
2022/10/03 13:52:06;;;;;;;;;;;24.30;99.90;;;;;;5059773;28;20378;-88
2022/10/03 13:54:48;;;;;;;;;;;24.20;99.90;;;;;;5062362;28;19929;-86
2022/10/03 13:57:17;;;;;;;;;;;24.00;99.90;;;;;;5071408;28;19988;-87
2022/10/03 13:59:53;;;;;;;;;;;23.80;99.90;;;;;;5077431;28;19929;-87
2022/10/03 14:02:39;;;;;;;;;;;24.00;99.90;;;;;;5059956;28;19955;-87
2022/10/03 14:05:13;;;;;;;;;;;24.00;99.90;;;;;;5063818;28;19932;-87
2022/10/03 14:07:46;;;;;;;;;;;23.80;99.90;;;;;;5076264;28;19952;-88
2022/10/03 14:10:27;;;;;;;;;;;23.70;99.90;;;;;;5059262;28;19929;-88
2022/10/03 14:13:01;;;;;;;;;;;23.40;99.90;;;;;;5073947;28;19929;-88
2022/10/03 14:15:43;;;;;;;;;;;22.90;99.90;;;;;;5064320;28;19976;-87
2022/10/03 14:18:18;;;;;;;;;;;22.60;99.90;;;;;;5067140;28;19928;-87
2022/10/03 14:21:00;;;;;;;;;;;22.60;99.90;;;;;;5068284;28;19934;-86
2022/10/03 14:23:32;;;;;;;;;;;22.40;99.90;;;;;;5067438;28;20400;-87
2022/10/03 14:26:03;;;;;;;;;;;22.10;99.90;;;;;;5064913;28;19940;-88
2022/10/03 14:28:34;;;;;;;;;;;21.90;99.90;;;;;;5070339;28;20272;-87
2022/10/03 14:31:06;;;;;;;;;;;21.60;99.90;;;;;;5067569;28;20348;-88
2022/10/03 14:33:37;;;;;;;;;;;21.40;99.90;;;;;;5083994;28;20385;-89
2022/10/03 14:36:11;;;;;;;;;;;20.80;99.90;;;;;;5078536;28;20020;-88
2022/10/03 14:38:59;;;;;;;;;;;20.70;99.90;;;;;;5087238;28;19925;-89
2022/10/03 14:41:29;;;;;;;;;;;20.40;99.90;;;;;;5072067;28;20348;-89
2022/10/03 14:43:57;;;;;;;;;;;19.90;99.90;;;;;;5069494;28;19947;-88
2022/10/03 14:46:25;;;;;;;;;;;19.90;99.90;;;;;;5065834;28;19932;-89
2022/10/03 14:48:54;;;;;;;;;;;19.70;99.90;;;;;;5092724;28;19984;-89
2022/10/03 14:51:22;;;;;;;;;;;19.50;99.90;;;;;;5065709;28;20018;-88
2022/10/03 14:53:55;;;;;;;;;;;19.50;99.90;;;;;;5068723;28;21360;-87
2022/10/03 14:56:24;;;;;;;;;;;19.20;99.90;;;;;;5071031;28;19926;-89
2022/10/03 14:58:52;;;;;;;;;;;19.20;99.90;;;;;;5086475;28;20356;-88
2022/10/03 15:01:21;;;;;;;;;;;19.10;99.90;;;;;;5090486;28;19932;-88
2022/10/03 15:03:54;;;;;;;;;;;19.10;99.90;;;;;;5085155;28;19932;-87
2022/10/03 15:06:33;;;;;;;;;;;19.10;99.90;;;;;;5083791;28;19975;-89
2022/10/03 15:09:04;;;;;;;;;;;19.20;99.90;;;;;;5093889;28;19937;-89
2022/10/03 15:11:32;;;;;;;;;;;19.20;99.90;;;;;;5085323;28;19933;-90
2022/10/03 15:14:02;;;;;;;;;;;19.20;99.90;;;;;;5079468;28;19939;-87
2022/10/03 15:16:32;;;;;;;;;;;19.30;99.90;;;;;;5062656;28;20244;-87
2022/10/03 15:19:01;;;;;;;;;;;19.40;99.90;;;;;;5075691;28;19933;-87
2022/10/03 15:21:28;;;;;;;;;;;19.20;99.90;;;;;;5061761;28;19963;-89
2022/10/03 15:23:57;;;;;;;;;;;19.30;99.90;;;;;;5062160;28;19955;-86
2022/10/03 15:26:27;;;;;;;;;;;19.20;99.90;;;;;;5059397;28;19959;-87
2022/10/03 15:28:55;;;;;;;;;;;19.10;99.90;;;;;;5062189;28;19977;-87
2022/10/03 15:31:28;;;;;;;;;;;19.10;99.90;;;;;;5061014;28;20453;-87
2022/10/03 15:33:56;;;;;;;;;;;19.00;99.90;;;;;;5071116;28;20415;-90
2022/10/03 15:36:25;;;;;;;;;;;19.50;99.90;;;;;;5069243;28;19939;-87
2022/10/03 15:38:54;;;;;;;;;;;19.10;99.90;;;;;;5066098;28;19929;-87
2022/10/03 15:41:23;;;;;;;;;;;19.10;99.90;;;;;;5056497;28;19979;-88
2022/10/03 15:43:55;;;;;;;;;;;19.10;99.90;;;;;;5062254;28;19954;-88
2022/10/03 15:46:29;;;;;;;;;;;18.90;99.90;;;;;;5088476;28;19990;-88
2022/10/03 15:48:57;;;;;;;;;;;18.90;99.90;;;;;;5062250;28;19928;-88